RJNF(METAR)
04/24 09:00
RJNF 240000Z 16014KT 9999 RA FEW040 OVCXXX 19/14 Q1013 RMK A2993=
戻る
トップページへ戻る
IMOC Co,.Ltd.